sensor_id;sensor_type;location;lat;lon;timestamp;temperature;humidity
11426;DHT22;5769;47.998;7.788;2022-11-15T00:01:27;19.90;69.60
11426;DHT22;5769;47.998;7.788;2022-11-15T00:03:53;19.90;69.60
11426;DHT22;5769;47.998;7.788;2022-11-15T00:06:20;19.90;69.60
11426;DHT22;5769;47.998;7.788;2022-11-15T00:08:47;19.90;69.60
11426;DHT22;5769;47.998;7.788;2022-11-15T00:11:15;19.90;69.60
11426;DHT22;5769;47.998;7.788;2022-11-15T00:13:42;19.90;69.60
11426;DHT22;5769;47.998;7.788;2022-11-15T00:16:09;19.90;69.60
11426;DHT22;5769;47.998;7.788;2022-11-15T00:18:37;19.90;69.60
11426;DHT22;5769;47.998;7.788;2022-11-15T00:21:06;19.90;69.60
11426;DHT22;5769;47.998;7.788;2022-11-15T00:23:33;19.90;69.60
11426;DHT22;5769;47.998;7.788;2022-11-15T00:26:00;19.90;69.60
11426;DHT22;5769;47.998;7.788;2022-11-15T00:28:28;19.90;69.60
11426;DHT22;5769;47.998;7.788;2022-11-15T00:31:00;19.90;69.60
11426;DHT22;5769;47.998;7.788;2022-11-15T00:33:27;19.90;69.60
11426;DHT22;5769;47.998;7.788;2022-11-15T00:35:58;19.90;69.60
11426;DHT22;5769;47.998;7.788;2022-11-15T00:38:25;19.90;69.60
11426;DHT22;5769;47.998;7.788;2022-11-15T00:40:56;19.90;69.60
11426;DHT22;5769;47.998;7.788;2022-11-15T00:43:23;19.90;69.60
11426;DHT22;5769;47.998;7.788;2022-11-15T00:45:51;19.90;69.70
11426;DHT22;5769;47.998;7.788;2022-11-15T00:48:17;19.90;69.70
11426;DHT22;5769;47.998;7.788;2022-11-15T00:50:44;19.90;69.70
11426;DHT22;5769;47.998;7.788;2022-11-15T00:53:12;19.90;69.70
11426;DHT22;5769;47.998;7.788;2022-11-15T00:55:38;19.90;69.70
11426;DHT22;5769;47.998;7.788;2022-11-15T00:58:05;19.90;69.70
11426;DHT22;5769;47.998;7.788;2022-11-15T01:00:32;19.90;69.70
11426;DHT22;5769;47.998;7.788;2022-11-15T01:03:01;19.90;69.70
11426;DHT22;5769;47.998;7.788;2022-11-15T01:05:28;19.90;69.70
11426;DHT22;5769;47.998;7.788;2022-11-15T01:07:55;19.90;69.70
11426;DHT22;5769;47.998;7.788;2022-11-15T01:10:23;19.90;69.70
11426;DHT22;5769;47.998;7.788;2022-11-15T01:12:51;19.90;69.70
11426;DHT22;5769;47.998;7.788;2022-11-15T01:15:18;19.90;69.70
11426;DHT22;5769;47.998;7.788;2022-11-15T01:17:44;19.90;69.70
11426;DHT22;5769;47.998;7.788;2022-11-15T01:20:13;19.90;69.70
11426;DHT22;5769;47.998;7.788;2022-11-15T01:22:40;19.90;69.70
11426;DHT22;5769;47.998;7.788;2022-11-15T01:25:07;19.90;69.70
11426;DHT22;5769;47.998;7.788;2022-11-15T01:27:34;19.90;69.70
11426;DHT22;5769;47.998;7.788;2022-11-15T01:32:35;19.90;69.70
11426;DHT22;5769;47.998;7.788;2022-11-15T01:35:03;19.90;69.70
11426;DHT22;5769;47.998;7.788;2022-11-15T01:37:31;19.90;69.70
11426;DHT22;5769;47.998;7.788;2022-11-15T01:39:58;19.80;69.60
11426;DHT22;5769;47.998;7.788;2022-11-15T01:42:24;19.80;69.70
11426;DHT22;5769;47.998;7.788;2022-11-15T01:44:52;19.90;69.70
11426;DHT22;5769;47.998;7.788;2022-11-15T01:47:22;19.90;69.70
11426;DHT22;5769;47.998;7.788;2022-11-15T01:49:55;19.90;69.70
11426;DHT22;5769;47.998;7.788;2022-11-15T01:52:25;19.80;69.70
11426;DHT22;5769;47.998;7.788;2022-11-15T01:54:59;19.90;69.70
11426;DHT22;5769;47.998;7.788;2022-11-15T01:57:27;19.90;69.70
11426;DHT22;5769;47.998;7.788;2022-11-15T01:59:54;19.90;69.70
11426;DHT22;5769;47.998;7.788;2022-11-15T02:02:21;19.90;69.70
11426;DHT22;5769;47.998;7.788;2022-11-15T02:04:48;19.80;69.60
11426;DHT22;5769;47.998;7.788;2022-11-15T02:07:17;19.80;69.60
11426;DHT22;5769;47.998;7.788;2022-11-15T02:09:44;19.90;69.70
11426;DHT22;5769;47.998;7.788;2022-11-15T02:12:14;19.80;69.60
11426;DHT22;5769;47.998;7.788;2022-11-15T02:14:45;19.90;69.70
11426;DHT22;5769;47.998;7.788;2022-11-15T02:17:26;19.80;69.60
11426;DHT22;5769;47.998;7.788;2022-11-15T02:20:20;19.80;69.70
11426;DHT22;5769;47.998;7.788;2022-11-15T02:23:06;19.80;69.60
11426;DHT22;5769;47.998;7.788;2022-11-15T02:25:40;19.80;69.70
11426;DHT22;5769;47.998;7.788;2022-11-15T02:28:34;19.90;69.70
11426;DHT22;5769;47.998;7.788;2022-11-15T02:31:09;19.80;69.70
11426;DHT22;5769;47.998;7.788;2022-11-15T02:33:42;19.80;69.70
11426;DHT22;5769;47.998;7.788;2022-11-15T02:36:15;19.80;69.60
11426;DHT22;5769;47.998;7.788;2022-11-15T02:38:50;19.80;69.60
11426;DHT22;5769;47.998;7.788;2022-11-15T02:41:23;19.80;69.60
11426;DHT22;5769;47.998;7.788;2022-11-15T02:43:58;19.80;69.60
11426;DHT22;5769;47.998;7.788;2022-11-15T02:46:33;19.80;69.60
11426;DHT22;5769;47.998;7.788;2022-11-15T02:49:19;19.80;69.60
11426;DHT22;5769;47.998;7.788;2022-11-15T02:51:47;19.80;69.60
11426;DHT22;5769;47.998;7.788;2022-11-15T02:54:19;19.80;69.60
11426;DHT22;5769;47.998;7.788;2022-11-15T02:56:47;19.80;69.70
11426;DHT22;5769;47.998;7.788;2022-11-15T03:02:20;19.80;69.60
11426;DHT22;5769;47.998;7.788;2022-11-15T03:04:54;19.80;69.60
11426;DHT22;5769;47.998;7.788;2022-11-15T03:07:26;19.80;69.60
11426;DHT22;5769;47.998;7.788;2022-11-15T03:09:57;19.80;69.60
11426;DHT22;5769;47.998;7.788;2022-11-15T03:12:36;19.80;69.60
11426;DHT22;5769;47.998;7.788;2022-11-15T03:15:11;19.80;69.60
11426;DHT22;5769;47.998;7.788;2022-11-15T03:17:48;19.80;69.60
11426;DHT22;5769;47.998;7.788;2022-11-15T03:20:18;19.80;69.60
11426;DHT22;5769;47.998;7.788;2022-11-15T03:22:47;19.80;69.60
11426;DHT22;5769;47.998;7.788;2022-11-15T03:25:18;19.80;70.30
11426;DHT22;5769;47.998;7.788;2022-11-15T03:27:51;19.80;69.60
11426;DHT22;5769;47.998;7.788;2022-11-15T03:30:19;19.80;69.60
11426;DHT22;5769;47.998;7.788;2022-11-15T03:32:50;19.80;69.60
11426;DHT22;5769;47.998;7.788;2022-11-15T03:35:20;19.80;69.60
11426;DHT22;5769;47.998;7.788;2022-11-15T03:37:52;19.80;69.60
11426;DHT22;5769;47.998;7.788;2022-11-15T03:40:24;19.80;69.60
11426;DHT22;5769;47.998;7.788;2022-11-15T03:43:00;19.80;69.60
11426;DHT22;5769;47.998;7.788;2022-11-15T03:45:31;19.80;69.60
11426;DHT22;5769;47.998;7.788;2022-11-15T03:48:04;19.80;69.60
11426;DHT22;5769;47.998;7.788;2022-11-15T03:50:32;19.80;69.60
11426;DHT22;5769;47.998;7.788;2022-11-15T03:52:59;19.80;69.60
11426;DHT22;5769;47.998;7.788;2022-11-15T03:55:26;19.80;69.60
11426;DHT22;5769;47.998;7.788;2022-11-15T03:57:54;19.80;69.60
11426;DHT22;5769;47.998;7.788;2022-11-15T04:00:22;19.80;69.60
11426;DHT22;5769;47.998;7.788;2022-11-15T04:02:48;19.80;69.60
11426;DHT22;5769;47.998;7.788;2022-11-15T04:05:17;19.80;69.60
11426;DHT22;5769;47.998;7.788;2022-11-15T04:07:43;19.80;69.60
11426;DHT22;5769;47.998;7.788;2022-11-15T04:10:11;19.80;69.60
11426;DHT22;5769;47.998;7.788;2022-11-15T04:12:40;19.80;69.60
11426;DHT22;5769;47.998;7.788;2022-11-15T04:15:10;19.80;69.60
11426;DHT22;5769;47.998;7.788;2022-11-15T04:17:39;19.80;69.60
11426;DHT22;5769;47.998;7.788;2022-11-15T04:20:09;19.80;69.60
11426;DHT22;5769;47.998;7.788;2022-11-15T04:22:56;19.80;69.60
11426;DHT22;5769;47.998;7.788;2022-11-15T04:25:41;19.80;69.60
11426;DHT22;5769;47.998;7.788;2022-11-15T04:28:08;19.80;69.60
11426;DHT22;5769;47.998;7.788;2022-11-15T04:30:35;19.80;69.60
11426;DHT22;5769;47.998;7.788;2022-11-15T04:33:02;19.80;69.60
11426;DHT22;5769;47.998;7.788;2022-11-15T04:35:29;19.80;70.30
11426;DHT22;5769;47.998;7.788;2022-11-15T04:37:57;19.80;69.60
11426;DHT22;5769;47.998;7.788;2022-11-15T04:40:24;19.80;69.60
11426;DHT22;5769;47.998;7.788;2022-11-15T04:42:51;19.80;69.60
11426;DHT22;5769;47.998;7.788;2022-11-15T04:45:18;19.80;69.60
11426;DHT22;5769;47.998;7.788;2022-11-15T04:47:45;19.80;69.60
11426;DHT22;5769;47.998;7.788;2022-11-15T04:50:12;19.80;69.60
11426;DHT22;5769;47.998;7.788;2022-11-15T04:52:40;19.80;69.60
11426;DHT22;5769;47.998;7.788;2022-11-15T04:55:09;19.80;69.60
11426;DHT22;5769;47.998;7.788;2022-11-15T04:57:36;19.80;69.60
11426;DHT22;5769;47.998;7.788;2022-11-15T05:00:05;19.80;69.60
11426;DHT22;5769;47.998;7.788;2022-11-15T05:02:32;19.80;69.60
11426;DHT22;5769;47.998;7.788;2022-11-15T05:05:13;19.80;69.60
11426;DHT22;5769;47.998;7.788;2022-11-15T05:07:39;19.80;69.60
11426;DHT22;5769;47.998;7.788;2022-11-15T05:10:08;19.80;69.60
11426;DHT22;5769;47.998;7.788;2022-11-15T05:12:35;19.80;69.60
11426;DHT22;5769;47.998;7.788;2022-11-15T05:15:02;19.80;69.60
11426;DHT22;5769;47.998;7.788;2022-11-15T05:17:29;19.80;69.60
11426;DHT22;5769;47.998;7.788;2022-11-15T05:19:56;19.80;69.60
11426;DHT22;5769;47.998;7.788;2022-11-15T05:22:22;19.80;69.60
11426;DHT22;5769;47.998;7.788;2022-11-15T05:24:49;19.80;69.60
11426;DHT22;5769;47.998;7.788;2022-11-15T05:27:17;19.80;69.60
11426;DHT22;5769;47.998;7.788;2022-11-15T05:29:44;19.80;69.60
11426;DHT22;5769;47.998;7.788;2022-11-15T05:32:12;19.80;69.60
11426;DHT22;5769;47.998;7.788;2022-11-15T05:34:38;19.80;69.60
11426;DHT22;5769;47.998;7.788;2022-11-15T05:37:05;19.80;69.50
11426;DHT22;5769;47.998;7.788;2022-11-15T05:39:32;19.80;69.50
11426;DHT22;5769;47.998;7.788;2022-11-15T05:42:01;19.80;69.50
11426;DHT22;5769;47.998;7.788;2022-11-15T05:44:31;19.80;69.50
11426;DHT22;5769;47.998;7.788;2022-11-15T05:46:58;19.80;69.50
11426;DHT22;5769;47.998;7.788;2022-11-15T05:49:26;19.80;69.50
11426;DHT22;5769;47.998;7.788;2022-11-15T05:51:56;19.80;69.50
11426;DHT22;5769;47.998;7.788;2022-11-15T05:54:25;19.80;69.60
11426;DHT22;5769;47.998;7.788;2022-11-15T05:56:52;19.80;69.50
11426;DHT22;5769;47.998;7.788;2022-11-15T05:59:19;19.80;69.50
11426;DHT22;5769;47.998;7.788;2022-11-15T06:01:47;19.80;69.60
11426;DHT22;5769;47.998;7.788;2022-11-15T06:04:14;19.80;69.50
11426;DHT22;5769;47.998;7.788;2022-11-15T06:06:41;19.80;69.60
11426;DHT22;5769;47.998;7.788;2022-11-15T06:09:07;19.80;69.60
11426;DHT22;5769;47.998;7.788;2022-11-15T06:11:34;19.80;70.30
11426;DHT22;5769;47.998;7.788;2022-11-15T06:14:01;19.80;69.60
11426;DHT22;5769;47.998;7.788;2022-11-15T06:16:27;19.80;69.60
11426;DHT22;5769;47.998;7.788;2022-11-15T06:18:56;19.80;69.60
11426;DHT22;5769;47.998;7.788;2022-11-15T06:21:22;19.80;69.70
11426;DHT22;5769;47.998;7.788;2022-11-15T06:23:49;19.80;69.70
11426;DHT22;5769;47.998;7.788;2022-11-15T06:26:16;19.80;69.70
11426;DHT22;5769;47.998;7.788;2022-11-15T06:28:43;19.80;69.70
11426;DHT22;5769;47.998;7.788;2022-11-15T06:31:10;19.80;69.70
11426;DHT22;5769;47.998;7.788;2022-11-15T06:33:38;19.80;69.70
11426;DHT22;5769;47.998;7.788;2022-11-15T06:36:08;19.80;69.70
11426;DHT22;5769;47.998;7.788;2022-11-15T06:38:36;19.80;69.70
11426;DHT22;5769;47.998;7.788;2022-11-15T06:41:04;19.80;69.70
11426;DHT22;5769;47.998;7.788;2022-11-15T06:43:31;19.80;69.70
11426;DHT22;5769;47.998;7.788;2022-11-15T06:45:58;19.80;69.70
11426;DHT22;5769;47.998;7.788;2022-11-15T06:48:25;19.80;69.70
11426;DHT22;5769;47.998;7.788;2022-11-15T06:50:52;19.80;69.80
11426;DHT22;5769;47.998;7.788;2022-11-15T06:53:20;19.80;69.80
11426;DHT22;5769;47.998;7.788;2022-11-15T06:55:47;19.80;69.80
11426;DHT22;5769;47.998;7.788;2022-11-15T06:58:14;19.80;69.80
11426;DHT22;5769;47.998;7.788;2022-11-15T07:00:41;19.80;70.00
11426;DHT22;5769;47.998;7.788;2022-11-15T07:03:08;19.80;69.80
11426;DHT22;5769;47.998;7.788;2022-11-15T07:05:35;19.80;69.80
11426;DHT22;5769;47.998;7.788;2022-11-15T07:08:03;19.80;69.80
11426;DHT22;5769;47.998;7.788;2022-11-15T07:10:31;19.80;69.80
11426;DHT22;5769;47.998;7.788;2022-11-15T07:12:57;19.80;70.50
11426;DHT22;5769;47.998;7.788;2022-11-15T07:15:25;19.80;69.80
11426;DHT22;5769;47.998;7.788;2022-11-15T07:17:52;19.80;69.80
11426;DHT22;5769;47.998;7.788;2022-11-15T07:20:19;19.80;69.80
11426;DHT22;5769;47.998;7.788;2022-11-15T07:22:45;19.80;69.80
11426;DHT22;5769;47.998;7.788;2022-11-15T07:25:12;19.80;69.80
11426;DHT22;5769;47.998;7.788;2022-11-15T07:27:40;19.70;69.70
11426;DHT22;5769;47.998;7.788;2022-11-15T07:30:08;19.80;69.80
11426;DHT22;5769;47.998;7.788;2022-11-15T07:32:35;19.70;69.70
11426;DHT22;5769;47.998;7.788;2022-11-15T07:35:02;19.80;69.80
11426;DHT22;5769;47.998;7.788;2022-11-15T07:37:28;19.80;69.80
11426;DHT22;5769;47.998;7.788;2022-11-15T07:39:55;19.70;69.80
11426;DHT22;5769;47.998;7.788;2022-11-15T07:42:22;19.80;69.80
11426;DHT22;5769;47.998;7.788;2022-11-15T07:45:08;19.80;69.80
11426;DHT22;5769;47.998;7.788;2022-11-15T07:47:35;19.80;69.80
11426;DHT22;5769;47.998;7.788;2022-11-15T07:50:02;19.80;69.80
11426;DHT22;5769;47.998;7.788;2022-11-15T07:52:29;19.80;69.70
11426;DHT22;5769;47.998;7.788;2022-11-15T07:54:55;19.80;69.80
11426;DHT22;5769;47.998;7.788;2022-11-15T07:57:22;19.70;69.70
11426;DHT22;5769;47.998;7.788;2022-11-15T07:59:49;19.80;69.70
11426;DHT22;5769;47.998;7.788;2022-11-15T08:02:17;19.70;69.70
11426;DHT22;5769;47.998;7.788;2022-11-15T08:04:44;19.80;69.70
11426;DHT22;5769;47.998;7.788;2022-11-15T08:07:10;19.70;69.70
11426;DHT22;5769;47.998;7.788;2022-11-15T08:09:37;19.70;69.70
11426;DHT22;5769;47.998;7.788;2022-11-15T08:12:04;19.80;69.70
11426;DHT22;5769;47.998;7.788;2022-11-15T08:14:31;19.80;69.70
11426;DHT22;5769;47.998;7.788;2022-11-15T08:16:57;19.80;69.70
11426;DHT22;5769;47.998;7.788;2022-11-15T08:19:26;19.80;69.80
11426;DHT22;5769;47.998;7.788;2022-11-15T08:21:52;19.80;69.70
11426;DHT22;5769;47.998;7.788;2022-11-15T08:24:19;19.70;69.60
11426;DHT22;5769;47.998;7.788;2022-11-15T08:26:46;19.80;69.70
11426;DHT22;5769;47.998;7.788;2022-11-15T08:29:13;19.70;69.60
11426;DHT22;5769;47.998;7.788;2022-11-15T08:31:40;19.80;69.60
11426;DHT22;5769;47.998;7.788;2022-11-15T08:34:06;19.80;69.70
11426;DHT22;5769;47.998;7.788;2022-11-15T08:36:35;19.80;69.60
11426;DHT22;5769;47.998;7.788;2022-11-15T08:39:02;19.80;69.60
11426;DHT22;5769;47.998;7.788;2022-11-15T08:41:31;19.80;69.50
11426;DHT22;5769;47.998;7.788;2022-11-15T08:43:58;19.80;69.50
11426;DHT22;5769;47.998;7.788;2022-11-15T08:46:27;19.80;69.50
11426;DHT22;5769;47.998;7.788;2022-11-15T08:48:54;19.80;69.40
11426;DHT22;5769;47.998;7.788;2022-11-15T08:51:21;19.80;69.30
11426;DHT22;5769;47.998;7.788;2022-11-15T08:53:49;19.90;69.30
11426;DHT22;5769;47.998;7.788;2022-11-15T08:56:15;19.90;69.30
11426;DHT22;5769;47.998;7.788;2022-11-15T08:58:42;19.90;69.30
11426;DHT22;5769;47.998;7.788;2022-11-15T09:01:15;19.90;69.30
11426;DHT22;5769;47.998;7.788;2022-11-15T09:03:43;20.00;69.50
11426;DHT22;5769;47.998;7.788;2022-11-15T09:06:09;20.10;69.20
11426;DHT22;5769;47.998;7.788;2022-11-15T09:08:36;20.10;69.20
11426;DHT22;5769;47.998;7.788;2022-11-15T09:11:05;20.10;69.20
11426;DHT22;5769;47.998;7.788;2022-11-15T09:13:32;20.10;69.20
11426;DHT22;5769;47.998;7.788;2022-11-15T09:15:59;20.10;69.30
11426;DHT22;5769;47.998;7.788;2022-11-15T09:18:26;20.10;69.40
11426;DHT22;5769;47.998;7.788;2022-11-15T09:20:55;20.10;69.40
11426;DHT22;5769;47.998;7.788;2022-11-15T09:23:23;20.10;69.50
11426;DHT22;5769;47.998;7.788;2022-11-15T09:25:50;20.10;69.60
11426;DHT22;5769;47.998;7.788;2022-11-15T09:28:18;20.10;69.60
11426;DHT22;5769;47.998;7.788;2022-11-15T09:30:44;20.10;69.60
11426;DHT22;5769;47.998;7.788;2022-11-15T09:33:12;20.10;69.70
11426;DHT22;5769;47.998;7.788;2022-11-15T09:35:39;20.10;69.70
11426;DHT22;5769;47.998;7.788;2022-11-15T09:38:06;20.10;69.60
11426;DHT22;5769;47.998;7.788;2022-11-15T09:40:36;20.10;69.70
11426;DHT22;5769;47.998;7.788;2022-11-15T09:43:25;20.10;69.60
11426;DHT22;5769;47.998;7.788;2022-11-15T09:46:04;20.10;69.70
11426;DHT22;5769;47.998;7.788;2022-11-15T09:48:49;20.20;69.80
11426;DHT22;5769;47.998;7.788;2022-11-15T09:51:24;20.10;69.70
11426;DHT22;5769;47.998;7.788;2022-11-15T09:53:57;20.10;69.70
11426;DHT22;5769;47.998;7.788;2022-11-15T09:56:28;20.20;69.70
11426;DHT22;5769;47.998;7.788;2022-11-15T09:59:04;20.20;69.80
11426;DHT22;5769;47.998;7.788;2022-11-15T10:01:39;20.20;69.70
11426;DHT22;5769;47.998;7.788;2022-11-15T10:04:08;20.20;69.60
11426;DHT22;5769;47.998;7.788;2022-11-15T10:06:38;20.20;69.70
11426;DHT22;5769;47.998;7.788;2022-11-15T10:09:15;20.20;69.80
11426;DHT22;5769;47.998;7.788;2022-11-15T10:11:43;20.20;69.80
11426;DHT22;5769;47.998;7.788;2022-11-15T10:14:14;20.20;69.80
11426;DHT22;5769;47.998;7.788;2022-11-15T10:17:06;20.20;69.80
11426;DHT22;5769;47.998;7.788;2022-11-15T10:19:38;20.20;69.80
11426;DHT22;5769;47.998;7.788;2022-11-15T10:22:19;20.20;69.80
11426;DHT22;5769;47.998;7.788;2022-11-15T10:24:48;20.20;69.70
11426;DHT22;5769;47.998;7.788;2022-11-15T10:27:18;20.20;69.80
11426;DHT22;5769;47.998;7.788;2022-11-15T10:29:48;20.20;69.80
11426;DHT22;5769;47.998;7.788;2022-11-15T10:32:18;20.20;69.40
11426;DHT22;5769;47.998;7.788;2022-11-15T10:34:45;20.20;69.50
11426;DHT22;5769;47.998;7.788;2022-11-15T10:37:12;20.20;69.40
11426;DHT22;5769;47.998;7.788;2022-11-15T10:39:40;20.20;69.40
11426;DHT22;5769;47.998;7.788;2022-11-15T10:42:17;20.20;69.40
11426;DHT22;5769;47.998;7.788;2022-11-15T10:44:46;20.20;69.30
11426;DHT22;5769;47.998;7.788;2022-11-15T10:47:31;20.20;69.30
11426;DHT22;5769;47.998;7.788;2022-11-15T10:50:00;20.20;69.20
11426;DHT22;5769;47.998;7.788;2022-11-15T10:52:29;20.20;69.20
11426;DHT22;5769;47.998;7.788;2022-11-15T10:55:00;20.30;69.30
11426;DHT22;5769;47.998;7.788;2022-11-15T10:57:30;20.30;69.30
11426;DHT22;5769;47.998;7.788;2022-11-15T11:00:01;20.30;69.20
11426;DHT22;5769;47.998;7.788;2022-11-15T11:02:31;20.30;69.30
11426;DHT22;5769;47.998;7.788;2022-11-15T11:04:59;20.30;69.20
11426;DHT22;5769;47.998;7.788;2022-11-15T11:07:27;20.30;69.20
11426;DHT22;5769;47.998;7.788;2022-11-15T11:09:59;20.30;69.20
11426;DHT22;5769;47.998;7.788;2022-11-15T11:12:30;20.30;69.20
11426;DHT22;5769;47.998;7.788;2022-11-15T11:15:00;20.30;69.00
11426;DHT22;5769;47.998;7.788;2022-11-15T11:17:36;20.30;69.10
11426;DHT22;5769;47.998;7.788;2022-11-15T11:20:11;20.30;69.10
11426;DHT22;5769;47.998;7.788;2022-11-15T11:23:00;20.30;68.80
11426;DHT22;5769;47.998;7.788;2022-11-15T11:25:34;20.30;68.80
11426;DHT22;5769;47.998;7.788;2022-11-15T11:28:21;20.20;68.90
11426;DHT22;5769;47.998;7.788;2022-11-15T11:31:00;20.30;69.00
11426;DHT22;5769;47.998;7.788;2022-11-15T11:33:31;20.30;69.10
11426;DHT22;5769;47.998;7.788;2022-11-15T11:36:07;20.30;68.90
11426;DHT22;5769;47.998;7.788;2022-11-15T11:38:53;20.30;69.10
11426;DHT22;5769;47.998;7.788;2022-11-15T11:41:37;20.30;69.00
11426;DHT22;5769;47.998;7.788;2022-11-15T11:44:15;20.30;68.80
11426;DHT22;5769;47.998;7.788;2022-11-15T11:46:49;20.20;68.70
11426;DHT22;5769;47.998;7.788;2022-11-15T11:49:23;20.20;68.80
11426;DHT22;5769;47.998;7.788;2022-11-15T11:51:54;20.20;69.40
11426;DHT22;5769;47.998;7.788;2022-11-15T11:54:25;20.20;68.80
11426;DHT22;5769;47.998;7.788;2022-11-15T11:56:53;20.20;68.80
11426;DHT22;5769;47.998;7.788;2022-11-15T11:59:36;20.20;68.80
11426;DHT22;5769;47.998;7.788;2022-11-15T12:02:13;20.20;68.80
11426;DHT22;5769;47.998;7.788;2022-11-15T12:04:44;20.10;68.80
11426;DHT22;5769;47.998;7.788;2022-11-15T12:07:17;20.10;68.80
11426;DHT22;5769;47.998;7.788;2022-11-15T12:09:52;20.10;68.80
11426;DHT22;5769;47.998;7.788;2022-11-15T12:12:25;20.10;68.90
11426;DHT22;5769;47.998;7.788;2022-11-15T12:14:56;20.10;68.80
11426;DHT22;5769;47.998;7.788;2022-11-15T12:17:28;20.10;68.90
11426;DHT22;5769;47.998;7.788;2022-11-15T12:19:58;20.10;69.20
11426;DHT22;5769;47.998;7.788;2022-11-15T12:22:33;20.10;69.00
11426;DHT22;5769;47.998;7.788;2022-11-15T12:25:04;20.10;69.00
11426;DHT22;5769;47.998;7.788;2022-11-15T12:27:36;20.10;69.00
11426;DHT22;5769;47.998;7.788;2022-11-15T12:30:14;20.10;69.00
11426;DHT22;5769;47.998;7.788;2022-11-15T12:32:52;20.10;69.00
11426;DHT22;5769;47.998;7.788;2022-11-15T12:35:36;20.00;69.00
11426;DHT22;5769;47.998;7.788;2022-11-15T12:38:04;20.10;69.10
11426;DHT22;5769;47.998;7.788;2022-11-15T12:40:37;20.00;69.10
11426;DHT22;5769;47.998;7.788;2022-11-15T12:46:12;20.00;69.80
11426;DHT22;5769;47.998;7.788;2022-11-15T12:48:50;20.00;69.10
11426;DHT22;5769;47.998;7.788;2022-11-15T12:51:20;20.00;69.20
11426;DHT22;5769;47.998;7.788;2022-11-15T12:53:47;20.00;69.20
11426;DHT22;5769;47.998;7.788;2022-11-15T12:56:23;20.00;69.20
11426;DHT22;5769;47.998;7.788;2022-11-15T12:58:56;20.00;69.20
11426;DHT22;5769;47.998;7.788;2022-11-15T13:01:55;20.00;69.20
11426;DHT22;5769;47.998;7.788;2022-11-15T13:04:29;20.00;69.30
11426;DHT22;5769;47.998;7.788;2022-11-15T13:06:59;20.00;69.30
11426;DHT22;5769;47.998;7.788;2022-11-15T13:09:54;20.00;69.30
11426;DHT22;5769;47.998;7.788;2022-11-15T13:12:51;20.00;69.30
11426;DHT22;5769;47.998;7.788;2022-11-15T13:15:37;20.00;69.30
11426;DHT22;5769;47.998;7.788;2022-11-15T13:18:35;20.00;69.30
11426;DHT22;5769;47.998;7.788;2022-11-15T13:21:16;20.00;69.40
11426;DHT22;5769;47.998;7.788;2022-11-15T13:24:01;20.00;69.30
11426;DHT22;5769;47.998;7.788;2022-11-15T13:26:29;20.00;69.30
11426;DHT22;5769;47.998;7.788;2022-11-15T13:28:55;20.00;69.30
11426;DHT22;5769;47.998;7.788;2022-11-15T13:31:28;20.00;69.40
11426;DHT22;5769;47.998;7.788;2022-11-15T13:33:58;20.00;69.30
11426;DHT22;5769;47.998;7.788;2022-11-15T13:36:28;19.90;69.30
11426;DHT22;5769;47.998;7.788;2022-11-15T13:38:58;20.00;69.30
11426;DHT22;5769;47.998;7.788;2022-11-15T13:41:27;19.90;69.20
11426;DHT22;5769;47.998;7.788;2022-11-15T13:43:55;19.90;69.30
11426;DHT22;5769;47.998;7.788;2022-11-15T13:46:23;19.90;69.30
11426;DHT22;5769;47.998;7.788;2022-11-15T13:48:55;19.90;69.30
11426;DHT22;5769;47.998;7.788;2022-11-15T13:51:32;19.90;69.40
11426;DHT22;5769;47.998;7.788;2022-11-15T13:54:03;19.90;69.40
11426;DHT22;5769;47.998;7.788;2022-11-15T13:56:32;19.90;69.40
11426;DHT22;5769;47.998;7.788;2022-11-15T13:59:00;19.90;69.40
11426;DHT22;5769;47.998;7.788;2022-11-15T14:01:29;19.90;69.40
11426;DHT22;5769;47.998;7.788;2022-11-15T14:03:59;19.90;69.40
11426;DHT22;5769;47.998;7.788;2022-11-15T14:06:29;19.90;69.50
11426;DHT22;5769;47.998;7.788;2022-11-15T14:11:53;19.90;69.40
11426;DHT22;5769;47.998;7.788;2022-11-15T14:14:21;19.90;69.40
11426;DHT22;5769;47.998;7.788;2022-11-15T14:16:50;19.90;69.50
11426;DHT22;5769;47.998;7.788;2022-11-15T14:19:35;19.90;69.50
11426;DHT22;5769;47.998;7.788;2022-11-15T14:22:11;19.90;69.40
11426;DHT22;5769;47.998;7.788;2022-11-15T14:24:39;19.90;69.50
11426;DHT22;5769;47.998;7.788;2022-11-15T14:27:21;19.90;69.40
11426;DHT22;5769;47.998;7.788;2022-11-15T14:29:48;19.90;69.40
11426;DHT22;5769;47.998;7.788;2022-11-15T14:32:16;19.90;69.50
11426;DHT22;5769;47.998;7.788;2022-11-15T14:34:44;19.90;69.50
11426;DHT22;5769;47.998;7.788;2022-11-15T14:37:23;19.90;69.50
11426;DHT22;5769;47.998;7.788;2022-11-15T14:39:51;19.90;69.50
11426;DHT22;5769;47.998;7.788;2022-11-15T14:42:18;19.90;69.50
11426;DHT22;5769;47.998;7.788;2022-11-15T14:44:46;19.90;69.50
11426;DHT22;5769;47.998;7.788;2022-11-15T14:47:13;19.90;70.20
11426;DHT22;5769;47.998;7.788;2022-11-15T14:49:40;19.90;69.50
11426;DHT22;5769;47.998;7.788;2022-11-15T14:52:24;19.90;69.50
11426;DHT22;5769;47.998;7.788;2022-11-15T14:54:53;19.80;69.50
11426;DHT22;5769;47.998;7.788;2022-11-15T14:57:20;19.90;69.50
11426;DHT22;5769;47.998;7.788;2022-11-15T14:59:47;19.90;69.50
11426;DHT22;5769;47.998;7.788;2022-11-15T15:02:16;19.90;69.50
11426;DHT22;5769;47.998;7.788;2022-11-15T15:04:44;19.90;69.60
11426;DHT22;5769;47.998;7.788;2022-11-15T15:07:10;19.90;69.60
11426;DHT22;5769;47.998;7.788;2022-11-15T15:09:39;20.00;69.70
11426;DHT22;5769;47.998;7.788;2022-11-15T15:12:15;20.00;69.80
11426;DHT22;5769;47.998;7.788;2022-11-15T15:14:43;20.00;69.80
11426;DHT22;5769;47.998;7.788;2022-11-15T15:17:10;20.00;70.00
11426;DHT22;5769;47.998;7.788;2022-11-15T15:19:36;20.00;70.10
11426;DHT22;5769;47.998;7.788;2022-11-15T15:22:03;20.10;70.20
11426;DHT22;5769;47.998;7.788;2022-11-15T15:24:30;20.10;70.20
11426;DHT22;5769;47.998;7.788;2022-11-15T15:26:58;20.10;70.30
11426;DHT22;5769;47.998;7.788;2022-11-15T15:29:25;20.10;70.30
11426;DHT22;5769;47.998;7.788;2022-11-15T15:31:51;20.10;70.30
11426;DHT22;5769;47.998;7.788;2022-11-15T15:34:18;20.10;70.30
11426;DHT22;5769;47.998;7.788;2022-11-15T15:36:45;20.20;70.40
11426;DHT22;5769;47.998;7.788;2022-11-15T15:39:11;20.20;70.50
11426;DHT22;5769;47.998;7.788;2022-11-15T15:41:38;20.20;70.50
11426;DHT22;5769;47.998;7.788;2022-11-15T15:44:06;20.20;70.50
11426;DHT22;5769;47.998;7.788;2022-11-15T15:46:34;20.20;70.60
11426;DHT22;5769;47.998;7.788;2022-11-15T15:49:00;20.20;70.70
11426;DHT22;5769;47.998;7.788;2022-11-15T15:51:27;20.20;70.70
11426;DHT22;5769;47.998;7.788;2022-11-15T15:53:54;20.20;70.70
11426;DHT22;5769;47.998;7.788;2022-11-15T15:56:22;20.30;70.70
11426;DHT22;5769;47.998;7.788;2022-11-15T15:58:49;20.30;70.70
11426;DHT22;5769;47.998;7.788;2022-11-15T16:01:19;20.20;70.70
11426;DHT22;5769;47.998;7.788;2022-11-15T16:03:46;20.30;70.80
11426;DHT22;5769;47.998;7.788;2022-11-15T16:06:36;20.30;70.80
11426;DHT22;5769;47.998;7.788;2022-11-15T16:09:04;20.30;70.90
11426;DHT22;5769;47.998;7.788;2022-11-15T16:11:31;20.30;70.90
11426;DHT22;5769;47.998;7.788;2022-11-15T16:13:58;20.30;70.90
11426;DHT22;5769;47.998;7.788;2022-11-15T16:16:27;20.30;70.80